createdAt,value
2019-01-10T00:02:11.995Z,219.17
2019-01-10T00:04:50.187Z,231.10
2019-01-10T00:07:28.598Z,233.33
2019-01-10T00:10:08.146Z,226.60
2019-01-10T00:12:47.411Z,269.80
2019-01-10T00:15:40.322Z,530.70
2019-01-10T00:18:22.356Z,450.80
2019-01-10T00:21:00.376Z,245.07
2019-01-10T00:23:38.119Z,216.73
2019-01-10T00:26:17.328Z,219.67
2019-01-10T00:28:56.330Z,215.50
2019-01-10T00:34:30.622Z,222.50
2019-01-10T00:37:08.689Z,223.60
2019-01-10T00:39:47.389Z,232.27
2019-01-10T00:42:26.138Z,233.47
2019-01-10T00:45:05.922Z,249.80
2019-01-10T00:47:45.172Z,238.60
2019-01-10T00:50:25.691Z,240.30
2019-01-10T00:53:03.933Z,229.57
2019-01-10T00:55:41.726Z,243.87
2019-01-10T00:58:20.049Z,227.53
2019-01-10T01:00:58.295Z,234.70
2019-01-10T01:03:37.157Z,219.37
2019-01-10T01:06:15.787Z,220.33
2019-01-10T01:08:54.074Z,214.03
2019-01-10T01:11:32.818Z,209.47
2019-01-10T01:14:10.976Z,231.53
2019-01-10T01:16:49.314Z,225.83
2019-01-10T01:19:28.588Z,221.80
2019-01-10T01:22:07.051Z,222.07
2019-01-10T01:24:49.709Z,241.70
2019-01-10T01:27:28.204Z,220.47
2019-01-10T01:30:06.400Z,198.77
2019-01-10T01:32:45.086Z,212.50
2019-01-10T01:35:23.005Z,240.37
2019-01-10T01:38:02.138Z,228.90
2019-01-10T01:40:40.054Z,226.77
2019-01-10T01:43:18.521Z,216.93
2019-01-10T01:48:58.869Z,225.97
2019-01-10T01:51:36.730Z,214.10
2019-01-10T01:54:14.361Z,224.80
2019-01-10T01:56:52.810Z,233.63
2019-01-10T01:59:31.075Z,227.00
2019-01-10T02:02:09.404Z,224.43
2019-01-10T02:04:47.924Z,227.77
2019-01-10T02:13:27.394Z,230.33
2019-01-10T02:16:05.662Z,244.00
2019-01-10T02:18:43.880Z,252.00
2019-01-10T02:21:22.094Z,247.90
2019-01-10T02:26:57.701Z,229.97
2019-01-10T02:29:37.306Z,211.43
2019-01-10T02:32:17.336Z,212.30
2019-01-10T02:35:09.981Z,232.00
2019-01-10T02:37:47.955Z,224.07
2019-01-10T02:40:26.816Z,219.10
2019-01-10T02:43:04.882Z,217.43
2019-01-10T02:45:44.502Z,229.07
2019-01-10T02:48:23.106Z,211.83
2019-01-10T02:51:04.155Z,219.20
2019-01-10T02:53:42.809Z,222.93
2019-01-10T02:56:21.126Z,231.77
2019-01-10T02:58:59.155Z,219.20
2019-01-10T03:01:37.943Z,235.37
2019-01-10T03:07:17.165Z,221.37
2019-01-10T03:09:56.051Z,220.43
2019-01-10T03:12:34.842Z,237.97
2019-01-10T03:15:15.944Z,227.67
2019-01-10T03:20:56.628Z,226.43
2019-01-10T03:23:35.726Z,220.93
2019-01-10T03:26:14.612Z,208.97
2019-01-10T03:28:52.521Z,212.47
2019-01-10T03:31:31.452Z,216.70
2019-01-10T03:34:09.261Z,206.73
2019-01-10T03:36:47.648Z,223.00
2019-01-10T03:39:27.290Z,217.87
2019-01-10T03:42:05.986Z,231.37
2019-01-10T03:44:54.796Z,206.80
2019-01-10T03:47:32.740Z,217.10
2019-01-10T03:50:11.210Z,266.57
2019-01-10T03:52:49.719Z,239.33
2019-01-10T03:55:30.614Z,198.73
2019-01-10T03:58:09.306Z,232.00
2019-01-10T04:00:48.046Z,243.13
2019-01-10T04:03:26.609Z,205.50
2019-01-10T04:09:00.318Z,260.17
2019-01-10T04:14:38.266Z,202.23
2019-01-10T04:17:17.025Z,434.50
2019-01-10T04:19:55.499Z,192.17
2019-01-10T04:22:35.770Z,213.10
2019-01-10T04:25:15.738Z,219.27
2019-01-10T04:27:54.518Z,230.50
2019-01-10T04:33:32.353Z,203.33
2019-01-10T04:36:10.785Z,183.50
2019-01-10T04:38:52.364Z,164.83
2019-01-10T04:41:30.103Z,163.23
2019-01-10T04:44:10.651Z,162.60
2019-01-10T04:46:54.402Z,185.17
2019-01-10T04:49:34.197Z,230.03
2019-01-10T04:52:13.312Z,215.13
2019-01-10T04:54:56.053Z,217.87
2019-01-10T05:00:45.302Z,259.37
2019-01-10T05:03:25.621Z,270.77
2019-01-10T05:06:04.990Z,349.37
2019-01-10T05:08:47.026Z,185.47
2019-01-10T05:11:25.801Z,169.87
2019-01-10T05:14:16.202Z,332.40
2019-01-10T05:16:49.636Z,214.73
2019-01-10T05:19:28.402Z,237.23
2019-01-10T05:22:08.615Z,268.77
2019-01-10T05:30:27.065Z,183.43
2019-01-10T05:36:20.288Z,174.93
2019-01-10T05:38:59.589Z,155.97
2019-01-10T05:41:48.524Z,174.50
2019-01-10T05:44:28.162Z,243.83
2019-01-10T05:47:09.666Z,154.03
2019-01-10T05:49:54.363Z,195.13
2019-01-10T05:52:35.594Z,213.87
2019-01-10T05:55:20.644Z,181.27
2019-01-10T05:57:58.955Z,157.93
2019-01-10T06:00:40.910Z,138.40
2019-01-10T06:03:20.209Z,120.50
2019-01-10T06:05:59.892Z,126.73
2019-01-10T06:08:41.606Z,119.40
2019-01-10T06:11:24.086Z,115.80
2019-01-10T06:17:33.824Z,103.73
2019-01-10T06:20:58.966Z,131.00
2019-01-10T06:23:41.619Z,121.97
2019-01-10T06:26:21.679Z,106.80
2019-01-10T06:29:02.207Z,94.60
2019-01-10T06:31:53.463Z,109.77
2019-01-10T06:34:35.458Z,95.17
2019-01-10T06:37:15.973Z,101.03
2019-01-10T06:39:56.987Z,115.57
2019-01-10T06:42:35.782Z,109.33
2019-01-10T06:45:17.584Z,123.43
2019-01-10T06:53:52.190Z,159.70
2019-01-10T06:56:32.984Z,116.63
2019-01-10T06:59:12.581Z,121.67
2019-01-10T07:01:50.732Z,107.40
2019-01-10T07:07:27.849Z,107.47
2019-01-10T07:10:13.132Z,111.23
2019-01-10T07:12:58.399Z,108.73
2019-01-10T07:15:40.295Z,112.13
2019-01-10T07:18:24.081Z,96.50
2019-01-10T07:21:07.276Z,103.20
2019-01-10T07:23:54.323Z,103.83
2019-01-10T07:26:33.769Z,104.10
2019-01-10T07:29:15.863Z,90.00
2019-01-10T07:32:02.803Z,86.70
2019-01-10T07:34:41.210Z,119.67
2019-01-10T07:37:20.537Z,123.87
2019-01-10T07:40:01.806Z,87.33
2019-01-10T07:42:49.356Z,101.90
2019-01-10T07:45:36.531Z,91.67
2019-01-10T07:48:18.107Z,96.83
2019-01-10T07:50:57.701Z,98.47
2019-01-10T07:53:37.179Z,96.53
2019-01-10T07:56:19.578Z,89.73
2019-01-10T07:59:01.724Z,91.67
2019-01-10T08:01:44.127Z,93.77
2019-01-10T08:04:22.431Z,88.60
2019-01-10T08:07:11.923Z,100.00
2019-01-10T08:09:51.001Z,249.80
2019-01-10T08:12:29.012Z,120.87
2019-01-10T08:15:12.605Z,143.57
2019-01-10T08:17:56.131Z,102.40
2019-01-10T08:20:36.801Z,101.03
2019-01-10T08:23:14.999Z,93.60
2019-01-10T08:25:55.445Z,70.53
2019-01-10T08:28:36.932Z,73.93
2019-01-10T08:31:23.855Z,83.20
2019-01-10T08:34:02.405Z,84.47
2019-01-10T08:36:48.788Z,86.47
2019-01-10T08:39:30.855Z,76.50
2019-01-10T08:42:12.547Z,76.00
2019-01-10T08:44:50.941Z,80.87
2019-01-10T08:47:28.839Z,65.97
2019-01-10T08:50:08.582Z,74.30
2019-01-10T08:52:54.026Z,68.47
2019-01-10T08:55:36.060Z,77.23
2019-01-10T08:58:14.648Z,77.10
2019-01-10T09:00:58.021Z,76.37
2019-01-10T09:03:38.781Z,74.83
2019-01-10T09:06:17.250Z,82.03
2019-01-10T09:08:56.843Z,72.90
2019-01-10T09:11:39.613Z,73.30
2019-01-10T09:14:24.729Z,84.20
2019-01-10T09:17:05.251Z,88.93
2019-01-10T09:19:45.123Z,106.67
2019-01-10T09:22:23.449Z,92.17
2019-01-10T09:25:02.222Z,79.60
2019-01-10T09:27:43.936Z,75.80
2019-01-10T09:33:20.861Z,70.33
2019-01-10T09:36:03.637Z,78.07
2019-01-10T09:38:43.441Z,86.93
2019-01-10T09:41:24.086Z,71.13
2019-01-10T09:44:03.301Z,76.57
2019-01-10T09:46:42.317Z,87.30
2019-01-10T09:49:20.380Z,80.57
2019-01-10T09:51:59.745Z,88.77
2019-01-10T09:54:39.271Z,84.57
2019-01-10T09:57:19.682Z,77.97
2019-01-10T09:59:57.367Z,76.27
2019-01-10T10:02:37.357Z,79.97
2019-01-10T10:05:17.511Z,74.60
2019-01-10T10:07:56.095Z,80.30
2019-01-10T10:10:35.001Z,83.47
2019-01-10T10:13:15.595Z,91.80
2019-01-10T10:15:56.867Z,95.97
2019-01-10T10:18:36.638Z,87.90
2019-01-10T10:21:16.009Z,84.03
2019-01-10T10:23:54.148Z,112.50
2019-01-10T10:26:32.529Z,120.77
2019-01-10T10:29:12.196Z,131.63
2019-01-10T10:31:51.336Z,123.47
2019-01-10T10:34:33.347Z,240.83
2019-01-10T10:37:12.922Z,155.83
2019-01-10T10:39:54.937Z,135.40
2019-01-10T10:42:33.683Z,120.47
2019-01-10T10:45:15.809Z,113.20
2019-01-10T10:47:56.467Z,107.23
2019-01-10T10:50:35.423Z,114.80
2019-01-10T10:53:14.104Z,96.13
2019-01-10T10:55:53.478Z,101.10
2019-01-10T10:58:33.007Z,121.60
2019-01-10T11:01:12.882Z,100.23
2019-01-10T11:03:52.842Z,120.67
2019-01-10T11:06:36.074Z,99.43
2019-01-10T11:09:16.995Z,97.30
2019-01-10T11:11:57.042Z,100.77
2019-01-10T11:14:38.991Z,92.20
2019-01-10T11:17:21.684Z,114.37
2019-01-10T11:20:02.076Z,106.70
2019-01-10T11:22:43.486Z,104.43
2019-01-10T11:25:26.826Z,91.50
2019-01-10T11:28:16.204Z,106.93
2019-01-10T11:30:58.287Z,90.40
2019-01-10T11:33:38.795Z,102.93
2019-01-10T11:36:25.153Z,98.07
2019-01-10T11:39:05.936Z,110.53
2019-01-10T11:41:47.311Z,116.77
2019-01-10T11:44:28.425Z,106.63
2019-01-10T11:47:08.843Z,102.93
2019-01-10T11:49:48.417Z,93.80
2019-01-10T11:52:26.730Z,98.53
2019-01-10T11:55:07.019Z,98.33
2019-01-10T11:57:50.333Z,94.50
2019-01-10T12:00:37.872Z,88.47
2019-01-10T12:03:21.863Z,116.57
2019-01-10T12:06:00.963Z,141.63
2019-01-10T12:08:46.102Z,122.00
2019-01-10T12:11:25.851Z,115.37
2019-01-10T12:14:10.361Z,100.87
2019-01-10T12:16:51.144Z,98.50
2019-01-10T12:19:30.520Z,95.30
2019-01-10T12:22:14.947Z,103.63
2019-01-10T12:24:58.486Z,102.47
2019-01-10T12:27:38.382Z,111.07
2019-01-10T12:30:26.086Z,101.63
2019-01-10T12:33:13.199Z,133.37
2019-01-10T12:35:54.423Z,156.60
2019-01-10T12:38:37.099Z,117.67
2019-01-10T12:41:16.089Z,102.83
2019-01-10T12:43:58.031Z,93.00
2019-01-10T12:46:37.602Z,109.50
2019-01-10T12:49:17.027Z,94.77
2019-01-10T12:51:59.472Z,84.83
2019-01-10T12:54:44.225Z,104.13
2019-01-10T12:57:29.879Z,109.17
2019-01-10T13:00:12.001Z,109.73
2019-01-10T13:02:56.752Z,93.47
2019-01-10T13:05:45.545Z,97.13
2019-01-10T13:08:25.757Z,94.13
2019-01-10T13:11:07.162Z,91.40
2019-01-10T13:13:51.228Z,99.23
2019-01-10T13:16:31.883Z,95.63
2019-01-10T13:19:14.178Z,95.77
2019-01-10T13:21:53.234Z,99.50
2019-01-10T13:24:39.435Z,107.13
2019-01-10T13:27:20.449Z,90.43
2019-01-10T13:30:00.922Z,91.33
2019-01-10T13:32:40.563Z,85.67
2019-01-10T13:35:19.456Z,92.27
2019-01-10T13:38:04.134Z,89.50
2019-01-10T13:40:51.540Z,86.43
2019-01-10T13:43:39.317Z,129.30
2019-01-10T13:46:25.559Z,99.87
2019-01-10T13:49:11.047Z,89.70
2019-01-10T13:51:55.946Z,82.70
2019-01-10T13:54:38.902Z,87.67
2019-01-10T13:57:28.217Z,109.17
2019-01-10T14:00:10.801Z,98.83
2019-01-10T14:02:55.116Z,92.23
2019-01-10T14:05:40.731Z,90.50
2019-01-10T14:08:28.217Z,89.17
2019-01-10T14:11:22.680Z,99.60
2019-01-10T14:14:06.303Z,83.13
2019-01-10T14:16:49.838Z,95.73
2019-01-10T14:19:34.100Z,93.93
2019-01-10T14:22:51.624Z,84.97
2019-01-10T14:25:33.017Z,89.07
2019-01-10T14:28:13.777Z,86.23
2019-01-10T14:30:59.096Z,93.83
2019-01-10T14:33:48.389Z,88.17
2019-01-10T14:36:38.840Z,87.20
2019-01-10T14:39:18.622Z,94.03
2019-01-10T14:41:58.640Z,89.20
2019-01-10T14:47:50.691Z,82.20
2019-01-10T14:50:35.060Z,91.60
2019-01-10T14:53:17.143Z,103.67
2019-01-10T14:55:57.955Z,90.03
2019-01-10T14:58:37.669Z,87.97
2019-01-10T15:01:29.132Z,80.77
2019-01-10T15:04:17.623Z,93.83
2019-01-10T15:07:06.810Z,95.73
2019-01-10T15:09:59.745Z,81.67
2019-01-10T15:13:01.474Z,102.07
2019-01-10T15:15:48.193Z,90.13
2019-01-10T15:18:37.157Z,94.97
2019-01-10T15:21:40.572Z,97.80
2019-01-10T15:24:24.762Z,349.67
2019-01-10T15:27:11.667Z,235.20
2019-01-10T15:29:53.387Z,140.00
2019-01-10T15:32:39.880Z,399.47
2019-01-10T15:35:18.933Z,147.67
2019-01-10T15:38:14.009Z,111.13
2019-01-10T15:41:02.190Z,107.10
2019-01-10T15:43:43.234Z,104.03
2019-01-10T15:46:29.463Z,104.43
2019-01-10T15:49:19.688Z,99.80
2019-01-10T15:52:06.849Z,97.47
2019-01-10T15:55:03.198Z,99.10
2019-01-10T15:58:00.615Z,99.67
2019-01-10T16:01:01.111Z,113.47
2019-01-10T16:03:43.583Z,114.70
2019-01-10T16:06:27.608Z,105.03
2019-01-10T16:09:12.636Z,112.53
2019-01-10T16:11:56.836Z,119.60
2019-01-10T16:14:41.692Z,113.20
2019-01-10T16:17:28.805Z,117.80
2019-01-10T16:20:12.554Z,119.17
2019-01-10T16:22:57.513Z,120.60
2019-01-10T16:25:40.291Z,285.27
2019-01-10T16:28:25.882Z,172.83
2019-01-10T16:31:16.195Z,133.23
2019-01-10T16:34:03.397Z,109.20
2019-01-10T16:36:46.745Z,117.47
2019-01-10T16:39:28.733Z,115.67
2019-01-10T16:42:11.004Z,124.63
2019-01-10T16:44:53.180Z,122.33
2019-01-10T16:47:36.132Z,118.17
2019-01-10T16:50:30.179Z,126.03
2019-01-10T16:53:12.599Z,131.67
2019-01-10T16:55:59.638Z,129.57
2019-01-10T16:58:40.650Z,127.47
2019-01-10T17:01:29.870Z,128.27
2019-01-10T17:04:13.162Z,135.10
2019-01-10T17:06:56.874Z,132.30
2019-01-10T17:09:36.626Z,132.80
2019-01-10T17:12:22.347Z,126.00
2019-01-10T17:15:00.170Z,134.43
2019-01-10T17:17:42.010Z,121.17
2019-01-10T17:20:25.121Z,138.67
2019-01-10T17:23:07.807Z,171.63
2019-01-10T17:25:51.689Z,249.20
2019-01-10T17:28:31.019Z,174.17
2019-01-10T17:31:14.960Z,392.47
2019-01-10T17:33:54.901Z,503.83
2019-01-10T17:36:37.305Z,154.77
2019-01-10T17:39:17.243Z,143.27
2019-01-10T17:41:55.891Z,129.07
2019-01-10T17:44:53.838Z,146.50
2019-01-10T17:47:35.462Z,162.47
2019-01-10T17:50:14.872Z,158.87
2019-01-10T17:52:56.946Z,136.67
2019-01-10T17:55:48.419Z,453.97
2019-01-10T17:58:29.011Z,261.27
2019-01-10T18:01:08.999Z,160.93
2019-01-10T18:03:48.349Z,141.60
2019-01-10T18:06:32.462Z,131.43
2019-01-10T18:09:13.720Z,131.67
2019-01-10T18:11:54.479Z,127.23
2019-01-10T18:14:37.523Z,124.20
2019-01-10T18:17:15.014Z,128.03
2019-01-10T18:19:54.005Z,131.50
2019-01-10T18:22:36.910Z,133.70
2019-01-10T18:25:15.487Z,131.93
2019-01-10T18:27:53.117Z,140.67
2019-01-10T18:30:31.459Z,133.73
2019-01-10T18:33:12.737Z,135.03
2019-01-10T18:35:51.698Z,135.33
2019-01-10T18:38:31.286Z,127.53
2019-01-10T18:41:12.317Z,131.57
2019-01-10T18:43:58.667Z,146.43
2019-01-10T18:46:39.203Z,130.97
2019-01-10T18:49:21.321Z,139.47
2019-01-10T18:52:04.851Z,146.73
2019-01-10T18:54:45.819Z,140.57
2019-01-10T18:57:24.298Z,155.77
2019-01-10T19:00:03.338Z,156.87
2019-01-10T19:02:43.580Z,156.33
2019-01-10T19:05:26.281Z,153.73
2019-01-10T19:08:04.586Z,166.83
2019-01-10T19:10:43.025Z,160.97
2019-01-10T19:13:22.606Z,181.30
2019-01-10T19:16:04.623Z,172.33
2019-01-10T19:18:43.366Z,171.93
2019-01-10T19:21:24.062Z,166.67
2019-01-10T19:24:03.002Z,166.93
2019-01-10T19:26:42.475Z,177.40
2019-01-10T19:29:21.682Z,177.43
2019-01-10T19:31:59.416Z,177.97
2019-01-10T19:34:40.608Z,173.20
2019-01-10T19:37:20.955Z,175.83
2019-01-10T19:40:02.693Z,193.77
2019-01-10T19:42:43.089Z,191.77
2019-01-10T19:45:22.163Z,170.57
2019-01-10T19:48:11.184Z,185.27
2019-01-10T19:50:51.547Z,187.67
2019-01-10T19:53:33.881Z,185.03
2019-01-10T19:56:11.591Z,185.23
2019-01-10T19:58:49.593Z,176.00
2019-01-10T20:01:29.951Z,199.50
2019-01-10T20:04:10.010Z,187.23
2019-01-10T20:06:47.910Z,180.07
2019-01-10T20:09:29.936Z,186.50
2019-01-10T20:12:08.500Z,190.50
2019-01-10T20:14:47.979Z,193.73
2019-01-10T20:17:30.051Z,186.83
2019-01-10T20:20:11.320Z,187.87
2019-01-10T20:22:48.363Z,200.63
2019-01-10T20:25:29.644Z,192.80
2019-01-10T20:28:07.460Z,191.57
2019-01-10T20:30:46.075Z,202.33
2019-01-10T20:33:25.770Z,212.40
2019-01-10T20:36:04.154Z,224.93
2019-01-10T20:38:43.968Z,215.60
2019-01-10T20:41:21.340Z,209.77
2019-01-10T20:44:01.320Z,199.53
2019-01-10T20:46:39.503Z,234.77
2019-01-10T20:49:18.663Z,231.27
2019-01-10T20:51:56.045Z,209.47
2019-01-10T20:54:35.716Z,214.03
2019-01-10T20:57:16.027Z,205.47
2019-01-10T20:59:53.320Z,207.93
2019-01-10T21:02:31.175Z,205.17
2019-01-10T21:05:10.083Z,206.33
2019-01-10T21:07:51.339Z,217.53
2019-01-10T21:10:29.896Z,192.97
2019-01-10T21:13:08.317Z,201.60
2019-01-10T21:15:46.418Z,208.50
2019-01-10T21:18:28.620Z,208.77
2019-01-10T21:21:05.383Z,199.13
2019-01-10T21:23:47.745Z,214.03
2019-01-10T21:26:26.117Z,199.63
2019-01-10T21:29:03.339Z,188.90
2019-01-10T21:31:45.089Z,209.03
2019-01-10T21:34:26.079Z,205.50
2019-01-10T21:37:04.577Z,220.87
2019-01-10T21:39:42.259Z,231.67
2019-01-10T21:42:19.998Z,210.77
2019-01-10T21:44:57.569Z,215.57
2019-01-10T21:47:35.697Z,204.70
2019-01-10T21:50:15.890Z,189.77
2019-01-10T21:52:54.923Z,199.10
2019-01-10T21:55:34.777Z,193.40
2019-01-10T21:58:14.594Z,199.47
2019-01-10T22:00:52.425Z,200.63
2019-01-10T22:03:31.024Z,184.80
2019-01-10T22:06:13.515Z,197.90
2019-01-10T22:08:53.589Z,205.73
2019-01-10T22:11:31.266Z,195.57
2019-01-10T22:14:12.088Z,191.37
2019-01-10T22:16:50.217Z,183.77
2019-01-10T22:19:27.831Z,194.30
2019-01-10T22:22:06.943Z,188.17
2019-01-10T22:24:44.419Z,204.70
2019-01-10T22:27:23.566Z,184.93
2019-01-10T22:30:03.584Z,195.63
2019-01-10T22:32:42.308Z,198.57
2019-01-10T22:35:23.668Z,188.30
2019-01-10T22:38:05.639Z,196.57
2019-01-10T22:40:44.271Z,192.73
2019-01-10T22:43:23.248Z,210.27
2019-01-10T22:46:02.313Z,208.23
2019-01-10T22:48:47.715Z,202.23
2019-01-10T22:51:20.754Z,189.40
2019-01-10T22:54:02.224Z,198.80
2019-01-10T22:56:43.243Z,201.87
2019-01-10T22:59:24.378Z,225.87
2019-01-10T23:02:03.437Z,227.03
2019-01-10T23:04:41.719Z,215.97
2019-01-10T23:07:39.151Z,217.33
2019-01-10T23:10:20.442Z,224.10
2019-01-10T23:12:59.445Z,203.00
2019-01-10T23:15:38.001Z,205.43
2019-01-10T23:18:19.946Z,195.90
2019-01-10T23:21:06.801Z,198.73
2019-01-10T23:23:47.889Z,191.00
2019-01-10T23:26:27.393Z,202.70
2019-01-10T23:29:05.830Z,207.97
2019-01-10T23:31:44.384Z,223.17
2019-01-10T23:34:27.359Z,210.80
2019-01-10T23:37:05.563Z,216.93
2019-01-10T23:39:44.158Z,211.07
2019-01-10T23:42:22.280Z,210.50
2019-01-10T23:45:03.187Z,209.00
2019-01-10T23:47:41.441Z,290.07
2019-01-10T23:50:20.405Z,251.40
2019-01-10T23:53:00.013Z,235.03
2019-01-10T23:55:40.365Z,202.73
2019-01-10T23:58:18.701Z,248.93
